sensor_id;sensor_type;location;lat;lon;timestamp;temperature;humidity
27270;DHT22;14769;56.934;24.176;2022-12-10T00:00:24;-7.80;99.90
27270;DHT22;14769;56.934;24.176;2022-12-10T00:01:27;-7.80;99.90
27270;DHT22;14769;56.934;24.176;2022-12-10T00:02:29;-7.80;99.90
27270;DHT22;14769;56.934;24.176;2022-12-10T00:03:31;-7.80;99.90
27270;DHT22;14769;56.934;24.176;2022-12-10T00:04:33;-7.80;99.90
27270;DHT22;14769;56.934;24.176;2022-12-10T00:05:35;-7.70;99.90
27270;DHT22;14769;56.934;24.176;2022-12-10T00:06:38;-7.70;99.90
27270;DHT22;14769;56.934;24.176;2022-12-10T00:07:40;-7.70;99.90
27270;DHT22;14769;56.934;24.176;2022-12-10T00:08:42;-7.70;99.90
27270;DHT22;14769;56.934;24.176;2022-12-10T00:09:44;-7.70;99.90
27270;DHT22;14769;56.934;24.176;2022-12-10T00:10:46;-7.70;99.90
27270;DHT22;14769;56.934;24.176;2022-12-10T00:11:49;-7.70;99.90
27270;DHT22;14769;56.934;24.176;2022-12-10T00:12:51;-7.80;99.90
27270;DHT22;14769;56.934;24.176;2022-12-10T00:13:53;-7.80;99.90
27270;DHT22;14769;56.934;24.176;2022-12-10T00:14:55;-7.80;99.90
27270;DHT22;14769;56.934;24.176;2022-12-10T00:16:01;-7.80;99.90
27270;DHT22;14769;56.934;24.176;2022-12-10T00:17:03;-7.80;99.90
27270;DHT22;14769;56.934;24.176;2022-12-10T00:18:12;-7.80;99.90
27270;DHT22;14769;56.934;24.176;2022-12-10T00:19:13;-7.80;99.90
27270;DHT22;14769;56.934;24.176;2022-12-10T00:20:15;-7.70;99.90
27270;DHT22;14769;56.934;24.176;2022-12-10T00:21:24;-7.70;99.90
27270;DHT22;14769;56.934;24.176;2022-12-10T00:22:26;-7.70;99.90
27270;DHT22;14769;56.934;24.176;2022-12-10T00:23:28;-7.70;99.90
27270;DHT22;14769;56.934;24.176;2022-12-10T00:24:29;-7.70;99.90
27270;DHT22;14769;56.934;24.176;2022-12-10T00:25:32;-7.70;99.90
27270;DHT22;14769;56.934;24.176;2022-12-10T00:26:36;-7.70;99.90
27270;DHT22;14769;56.934;24.176;2022-12-10T00:27:38;-7.70;99.90
27270;DHT22;14769;56.934;24.176;2022-12-10T00:28:40;-7.70;99.90
27270;DHT22;14769;56.934;24.176;2022-12-10T00:29:43;-7.70;99.90
27270;DHT22;14769;56.934;24.176;2022-12-10T00:30:45;-7.70;99.90
27270;DHT22;14769;56.934;24.176;2022-12-10T00:31:47;-7.70;99.90
27270;DHT22;14769;56.934;24.176;2022-12-10T00:32:49;-7.70;99.90
27270;DHT22;14769;56.934;24.176;2022-12-10T00:33:54;-7.60;99.90
27270;DHT22;14769;56.934;24.176;2022-12-10T00:34:56;-7.70;99.90
27270;DHT22;14769;56.934;24.176;2022-12-10T00:36:05;-7.70;99.90
27270;DHT22;14769;56.934;24.176;2022-12-10T00:37:07;-7.60;99.90
27270;DHT22;14769;56.934;24.176;2022-12-10T00:38:09;-7.60;99.90
27270;DHT22;14769;56.934;24.176;2022-12-10T00:39:15;-7.60;99.90
27270;DHT22;14769;56.934;24.176;2022-12-10T00:40:17;-7.60;99.90
27270;DHT22;14769;56.934;24.176;2022-12-10T00:41:19;-7.60;99.90
27270;DHT22;14769;56.934;24.176;2022-12-10T00:42:21;-7.60;99.90
27270;DHT22;14769;56.934;24.176;2022-12-10T00:43:23;-7.60;99.90
27270;DHT22;14769;56.934;24.176;2022-12-10T00:44:24;-7.60;99.90
27270;DHT22;14769;56.934;24.176;2022-12-10T00:45:26;-7.60;99.90
27270;DHT22;14769;56.934;24.176;2022-12-10T00:46:28;-7.60;99.90
27270;DHT22;14769;56.934;24.176;2022-12-10T00:47:31;-7.60;99.90
27270;DHT22;14769;56.934;24.176;2022-12-10T00:48:33;-7.60;99.90
27270;DHT22;14769;56.934;24.176;2022-12-10T00:49:34;-7.60;99.90
27270;DHT22;14769;56.934;24.176;2022-12-10T00:50:36;-7.60;99.90
27270;DHT22;14769;56.934;24.176;2022-12-10T00:51:38;-7.60;99.90
27270;DHT22;14769;56.934;24.176;2022-12-10T00:52:40;-7.60;99.90
27270;DHT22;14769;56.934;24.176;2022-12-10T00:53:43;-7.60;99.90
27270;DHT22;14769;56.934;24.176;2022-12-10T00:54:45;-7.60;99.90
27270;DHT22;14769;56.934;24.176;2022-12-10T00:55:47;-7.60;99.90
27270;DHT22;14769;56.934;24.176;2022-12-10T00:56:49;-7.60;99.90
27270;DHT22;14769;56.934;24.176;2022-12-10T00:57:51;-7.60;99.90
27270;DHT22;14769;56.934;24.176;2022-12-10T00:58:53;-7.60;99.90
27270;DHT22;14769;56.934;24.176;2022-12-10T00:59:55;-7.60;99.90
27270;DHT22;14769;56.934;24.176;2022-12-10T01:01:08;-7.60;99.90
27270;DHT22;14769;56.934;24.176;2022-12-10T01:02:10;-7.60;99.90
27270;DHT22;14769;56.934;24.176;2022-12-10T01:03:12;-7.70;99.90
27270;DHT22;14769;56.934;24.176;2022-12-10T01:04:16;-7.60;99.90
27270;DHT22;14769;56.934;24.176;2022-12-10T01:05:18;-7.60;99.90
27270;DHT22;14769;56.934;24.176;2022-12-10T01:06:26;-7.70;99.90
27270;DHT22;14769;56.934;24.176;2022-12-10T01:07:29;-7.70;99.90
27270;DHT22;14769;56.934;24.176;2022-12-10T01:08:31;-7.70;99.90
27270;DHT22;14769;56.934;24.176;2022-12-10T01:09:33;-7.60;99.90
27270;DHT22;14769;56.934;24.176;2022-12-10T01:10:35;-7.60;99.90
27270;DHT22;14769;56.934;24.176;2022-12-10T01:11:39;-7.70;99.90
27270;DHT22;14769;56.934;24.176;2022-12-10T01:12:42;-7.70;99.90
27270;DHT22;14769;56.934;24.176;2022-12-10T01:13:46;-7.70;99.90
27270;DHT22;14769;56.934;24.176;2022-12-10T01:14:48;-7.70;99.90
27270;DHT22;14769;56.934;24.176;2022-12-10T01:15:50;-7.70;99.90
27270;DHT22;14769;56.934;24.176;2022-12-10T01:16:57;-7.70;99.90
27270;DHT22;14769;56.934;24.176;2022-12-10T01:17:59;-7.80;99.90
27270;DHT22;14769;56.934;24.176;2022-12-10T01:19:01;-7.80;99.90
27270;DHT22;14769;56.934;24.176;2022-12-10T01:20:04;-7.80;99.90
27270;DHT22;14769;56.934;24.176;2022-12-10T01:21:11;-7.70;99.90
27270;DHT22;14769;56.934;24.176;2022-12-10T01:22:14;-7.70;99.90
27270;DHT22;14769;56.934;24.176;2022-12-10T01:23:16;-7.70;99.90
27270;DHT22;14769;56.934;24.176;2022-12-10T01:24:17;-7.70;99.90
27270;DHT22;14769;56.934;24.176;2022-12-10T01:25:20;-7.70;99.90
27270;DHT22;14769;56.934;24.176;2022-12-10T01:26:24;-7.70;99.90
27270;DHT22;14769;56.934;24.176;2022-12-10T01:27:26;-7.70;99.90
27270;DHT22;14769;56.934;24.176;2022-12-10T01:28:33;-7.70;99.90
27270;DHT22;14769;56.934;24.176;2022-12-10T01:29:35;-7.70;99.90
27270;DHT22;14769;56.934;24.176;2022-12-10T01:30:37;-7.70;99.90
27270;DHT22;14769;56.934;24.176;2022-12-10T01:31:39;-7.80;99.90
27270;DHT22;14769;56.934;24.176;2022-12-10T01:32:41;-7.80;99.90
27270;DHT22;14769;56.934;24.176;2022-12-10T01:33:43;-7.80;99.90
27270;DHT22;14769;56.934;24.176;2022-12-10T01:34:45;-7.80;99.90
27270;DHT22;14769;56.934;24.176;2022-12-10T01:35:47;-7.90;99.90
27270;DHT22;14769;56.934;24.176;2022-12-10T01:36:51;-7.90;99.90
27270;DHT22;14769;56.934;24.176;2022-12-10T01:37:53;-7.90;99.90
27270;DHT22;14769;56.934;24.176;2022-12-10T01:38:56;-7.80;99.90
27270;DHT22;14769;56.934;24.176;2022-12-10T01:39:58;-7.80;99.90
27270;DHT22;14769;56.934;24.176;2022-12-10T01:41:01;-7.80;99.90
27270;DHT22;14769;56.934;24.176;2022-12-10T01:42:03;-7.80;99.90
27270;DHT22;14769;56.934;24.176;2022-12-10T01:43:05;-7.80;99.90
27270;DHT22;14769;56.934;24.176;2022-12-10T01:45:12;-7.80;99.90
27270;DHT22;14769;56.934;24.176;2022-12-10T01:46:14;-7.80;99.90
27270;DHT22;14769;56.934;24.176;2022-12-10T01:47:16;-7.80;99.90
27270;DHT22;14769;56.934;24.176;2022-12-10T01:48:18;-7.80;99.90
27270;DHT22;14769;56.934;24.176;2022-12-10T01:49:27;-7.80;99.90
27270;DHT22;14769;56.934;24.176;2022-12-10T01:50:33;-7.80;99.90
27270;DHT22;14769;56.934;24.176;2022-12-10T01:51:37;-7.80;99.90
27270;DHT22;14769;56.934;24.176;2022-12-10T01:52:39;-7.80;99.90
27270;DHT22;14769;56.934;24.176;2022-12-10T01:53:42;-7.80;99.90
27270;DHT22;14769;56.934;24.176;2022-12-10T01:54:46;-7.80;99.90
27270;DHT22;14769;56.934;24.176;2022-12-10T01:55:50;-7.80;99.90
27270;DHT22;14769;56.934;24.176;2022-12-10T01:56:59;-7.80;99.90
27270;DHT22;14769;56.934;24.176;2022-12-10T01:58:02;-7.80;99.90
27270;DHT22;14769;56.934;24.176;2022-12-10T01:59:05;-7.80;99.90
27270;DHT22;14769;56.934;24.176;2022-12-10T02:00:07;-7.80;99.90
27270;DHT22;14769;56.934;24.176;2022-12-10T02:02:48;-7.80;99.90
27270;DHT22;14769;56.934;24.176;2022-12-10T02:05:36;-7.80;99.90
27270;DHT22;14769;56.934;24.176;2022-12-10T02:08:05;-7.80;99.90
27270;DHT22;14769;56.934;24.176;2022-12-10T02:09:34;-7.80;99.90
27270;DHT22;14769;56.934;24.176;2022-12-10T02:11:07;-7.80;99.90
27270;DHT22;14769;56.934;24.176;2022-12-10T02:12:23;-7.80;99.90
27270;DHT22;14769;56.934;24.176;2022-12-10T02:13:40;-7.80;99.90
27270;DHT22;14769;56.934;24.176;2022-12-10T02:14:55;-7.80;99.90
27270;DHT22;14769;56.934;24.176;2022-12-10T02:16:21;-7.80;99.90
27270;DHT22;14769;56.934;24.176;2022-12-10T02:18:37;-7.80;99.90
27270;DHT22;14769;56.934;24.176;2022-12-10T02:19:54;-7.80;99.90
27270;DHT22;14769;56.934;24.176;2022-12-10T02:21:03;-7.80;99.90
27270;DHT22;14769;56.934;24.176;2022-12-10T02:22:08;-7.80;99.90
27270;DHT22;14769;56.934;24.176;2022-12-10T02:23:13;-7.80;99.90
27270;DHT22;14769;56.934;24.176;2022-12-10T02:24:23;-7.80;99.90
27270;DHT22;14769;56.934;24.176;2022-12-10T02:25:35;-7.80;99.90
27270;DHT22;14769;56.934;24.176;2022-12-10T02:26:43;-7.80;99.90
27270;DHT22;14769;56.934;24.176;2022-12-10T02:28:05;-7.80;99.90
27270;DHT22;14769;56.934;24.176;2022-12-10T02:29:16;-7.80;99.90
27270;DHT22;14769;56.934;24.176;2022-12-10T02:30:26;-7.80;99.90
27270;DHT22;14769;56.934;24.176;2022-12-10T02:32:40;-7.80;99.90
27270;DHT22;14769;56.934;24.176;2022-12-10T02:33:47;-7.90;99.90
27270;DHT22;14769;56.934;24.176;2022-12-10T02:34:57;-7.90;99.90
27270;DHT22;14769;56.934;24.176;2022-12-10T02:36:00;-7.80;99.90
27270;DHT22;14769;56.934;24.176;2022-12-10T02:37:07;-7.80;99.90
27270;DHT22;14769;56.934;24.176;2022-12-10T02:38:17;-7.80;99.90
27270;DHT22;14769;56.934;24.176;2022-12-10T02:39:26;-7.80;99.90
27270;DHT22;14769;56.934;24.176;2022-12-10T02:40:31;-7.80;99.90
27270;DHT22;14769;56.934;24.176;2022-12-10T02:41:38;-7.80;99.90
27270;DHT22;14769;56.934;24.176;2022-12-10T02:42:43;-7.80;99.90
27270;DHT22;14769;56.934;24.176;2022-12-10T02:43:47;-7.80;99.90
27270;DHT22;14769;56.934;24.176;2022-12-10T02:44:52;-7.80;99.90
27270;DHT22;14769;56.934;24.176;2022-12-10T02:45:56;-7.80;99.90
27270;DHT22;14769;56.934;24.176;2022-12-10T02:46:59;-7.80;99.90
27270;DHT22;14769;56.934;24.176;2022-12-10T02:48:03;-7.80;99.90
27270;DHT22;14769;56.934;24.176;2022-12-10T02:49:06;-7.80;99.90
27270;DHT22;14769;56.934;24.176;2022-12-10T02:50:10;-7.80;99.90
27270;DHT22;14769;56.934;24.176;2022-12-10T02:51:13;-7.80;99.90
27270;DHT22;14769;56.934;24.176;2022-12-10T02:52:18;-7.70;99.90
27270;DHT22;14769;56.934;24.176;2022-12-10T02:53:21;-7.70;99.90
27270;DHT22;14769;56.934;24.176;2022-12-10T02:54:45;-7.70;99.90
27270;DHT22;14769;56.934;24.176;2022-12-10T02:55:51;-7.70;99.90
27270;DHT22;14769;56.934;24.176;2022-12-10T02:57:00;-7.70;99.90
27270;DHT22;14769;56.934;24.176;2022-12-10T02:58:06;-7.70;99.90
27270;DHT22;14769;56.934;24.176;2022-12-10T02:59:36;-7.80;99.90
27270;DHT22;14769;56.934;24.176;2022-12-10T03:00:53;-7.70;99.90
27270;DHT22;14769;56.934;24.176;2022-12-10T03:02:24;-7.70;99.90
27270;DHT22;14769;56.934;24.176;2022-12-10T03:03:36;-7.70;99.90
27270;DHT22;14769;56.934;24.176;2022-12-10T03:06:24;-7.70;99.90
27270;DHT22;14769;56.934;24.176;2022-12-10T03:07:37;-7.70;99.90
27270;DHT22;14769;56.934;24.176;2022-12-10T03:08:51;-7.80;99.90
27270;DHT22;14769;56.934;24.176;2022-12-10T03:10:00;-7.80;99.90
27270;DHT22;14769;56.934;24.176;2022-12-10T03:11:14;-7.70;99.90
27270;DHT22;14769;56.934;24.176;2022-12-10T03:12:28;-7.70;99.90
27270;DHT22;14769;56.934;24.176;2022-12-10T03:13:39;-7.70;99.90
27270;DHT22;14769;56.934;24.176;2022-12-10T03:14:43;-7.70;99.90
27270;DHT22;14769;56.934;24.176;2022-12-10T03:15:47;-7.70;99.90
27270;DHT22;14769;56.934;24.176;2022-12-10T03:16:55;-7.70;99.90
27270;DHT22;14769;56.934;24.176;2022-12-10T03:18:03;-7.70;99.90
27270;DHT22;14769;56.934;24.176;2022-12-10T03:19:18;-7.70;99.90
27270;DHT22;14769;56.934;24.176;2022-12-10T03:20:22;-7.70;99.90
27270;DHT22;14769;56.934;24.176;2022-12-10T03:21:27;-7.70;99.90
27270;DHT22;14769;56.934;24.176;2022-12-10T03:22:31;-7.70;99.90
27270;DHT22;14769;56.934;24.176;2022-12-10T03:23:37;-7.70;99.90
27270;DHT22;14769;56.934;24.176;2022-12-10T03:24:42;-7.70;99.90
27270;DHT22;14769;56.934;24.176;2022-12-10T03:25:47;-7.70;99.90
27270;DHT22;14769;56.934;24.176;2022-12-10T03:26:50;-7.70;99.90
27270;DHT22;14769;56.934;24.176;2022-12-10T03:27:55;-7.60;99.90
27270;DHT22;14769;56.934;24.176;2022-12-10T03:29:03;-7.60;99.90
27270;DHT22;14769;56.934;24.176;2022-12-10T03:30:07;-7.60;99.90
27270;DHT22;14769;56.934;24.176;2022-12-10T03:31:10;-7.60;99.90
27270;DHT22;14769;56.934;24.176;2022-12-10T03:32:14;-7.60;99.90
27270;DHT22;14769;56.934;24.176;2022-12-10T03:33:17;-7.60;99.90
27270;DHT22;14769;56.934;24.176;2022-12-10T03:34:19;-7.60;99.90
27270;DHT22;14769;56.934;24.176;2022-12-10T03:35:22;-7.50;99.90
27270;DHT22;14769;56.934;24.176;2022-12-10T03:36:27;-7.50;99.90
27270;DHT22;14769;56.934;24.176;2022-12-10T03:37:30;-7.50;99.90
27270;DHT22;14769;56.934;24.176;2022-12-10T03:38:32;-7.50;99.90
27270;DHT22;14769;56.934;24.176;2022-12-10T03:39:34;-7.50;99.90
27270;DHT22;14769;56.934;24.176;2022-12-10T03:40:37;-7.50;99.90
27270;DHT22;14769;56.934;24.176;2022-12-10T03:41:39;-7.50;99.90
27270;DHT22;14769;56.934;24.176;2022-12-10T03:42:40;-7.50;99.90
27270;DHT22;14769;56.934;24.176;2022-12-10T03:43:53;-7.50;99.90
27270;DHT22;14769;56.934;24.176;2022-12-10T03:44:55;-7.50;99.90
27270;DHT22;14769;56.934;24.176;2022-12-10T03:45:57;-7.50;99.90
27270;DHT22;14769;56.934;24.176;2022-12-10T03:47:01;-7.50;99.90
27270;DHT22;14769;56.934;24.176;2022-12-10T03:48:03;-7.50;99.90
27270;DHT22;14769;56.934;24.176;2022-12-10T03:49:05;-7.50;99.90
27270;DHT22;14769;56.934;24.176;2022-12-10T03:50:08;-7.50;99.90
27270;DHT22;14769;56.934;24.176;2022-12-10T03:51:11;-7.50;99.90
27270;DHT22;14769;56.934;24.176;2022-12-10T03:52:13;-7.50;99.90
27270;DHT22;14769;56.934;24.176;2022-12-10T03:53:15;-7.50;99.90
27270;DHT22;14769;56.934;24.176;2022-12-10T03:54:17;-7.50;99.90
27270;DHT22;14769;56.934;24.176;2022-12-10T03:55:19;-7.50;99.90
27270;DHT22;14769;56.934;24.176;2022-12-10T03:56:21;-7.50;99.90
27270;DHT22;14769;56.934;24.176;2022-12-10T03:57:24;-7.50;99.90
27270;DHT22;14769;56.934;24.176;2022-12-10T03:58:26;-7.50;99.90
27270;DHT22;14769;56.934;24.176;2022-12-10T03:59:27;-7.50;99.90
27270;DHT22;14769;56.934;24.176;2022-12-10T04:00:29;-7.50;99.90
27270;DHT22;14769;56.934;24.176;2022-12-10T04:01:31;-7.50;99.90
27270;DHT22;14769;56.934;24.176;2022-12-10T04:02:33;-7.50;99.90
27270;DHT22;14769;56.934;24.176;2022-12-10T04:03:39;-7.50;99.90
27270;DHT22;14769;56.934;24.176;2022-12-10T04:04:42;-7.50;99.90
27270;DHT22;14769;56.934;24.176;2022-12-10T04:05:44;-7.50;99.90
27270;DHT22;14769;56.934;24.176;2022-12-10T04:06:47;-7.50;99.90
27270;DHT22;14769;56.934;24.176;2022-12-10T04:07:49;-7.50;99.90
27270;DHT22;14769;56.934;24.176;2022-12-10T04:08:53;-7.50;99.90
27270;DHT22;14769;56.934;24.176;2022-12-10T04:09:59;-7.50;99.90
27270;DHT22;14769;56.934;24.176;2022-12-10T04:11:06;-7.50;99.90
27270;DHT22;14769;56.934;24.176;2022-12-10T04:12:08;-7.50;99.90
27270;DHT22;14769;56.934;24.176;2022-12-10T04:13:10;-7.50;99.90
27270;DHT22;14769;56.934;24.176;2022-12-10T04:14:30;-7.50;99.90
27270;DHT22;14769;56.934;24.176;2022-12-10T04:15:51;-7.50;99.90
27270;DHT22;14769;56.934;24.176;2022-12-10T04:17:12;-7.50;99.90
27270;DHT22;14769;56.934;24.176;2022-12-10T04:18:14;-7.50;99.90
27270;DHT22;14769;56.934;24.176;2022-12-10T04:19:17;-7.50;99.90
27270;DHT22;14769;56.934;24.176;2022-12-10T04:20:19;-7.50;99.90
27270;DHT22;14769;56.934;24.176;2022-12-10T04:21:40;-7.60;99.90
27270;DHT22;14769;56.934;24.176;2022-12-10T04:23:01;-7.60;99.90
27270;DHT22;14769;56.934;24.176;2022-12-10T04:24:24;-7.60;99.90
27270;DHT22;14769;56.934;24.176;2022-12-10T04:25:45;-7.60;99.90
27270;DHT22;14769;56.934;24.176;2022-12-10T04:27:09;-7.60;99.90
27270;DHT22;14769;56.934;24.176;2022-12-10T04:28:11;-7.60;99.90
27270;DHT22;14769;56.934;24.176;2022-12-10T04:29:13;-7.60;99.90
27270;DHT22;14769;56.934;24.176;2022-12-10T04:30:15;-7.60;99.90
27270;DHT22;14769;56.934;24.176;2022-12-10T04:31:17;-7.60;99.90
27270;DHT22;14769;56.934;24.176;2022-12-10T04:32:20;-7.60;99.90
27270;DHT22;14769;56.934;24.176;2022-12-10T04:33:21;-7.60;99.90
27270;DHT22;14769;56.934;24.176;2022-12-10T04:34:24;-7.60;99.90
27270;DHT22;14769;56.934;24.176;2022-12-10T04:35:26;-7.70;99.90
27270;DHT22;14769;56.934;24.176;2022-12-10T04:36:28;-7.70;99.90
27270;DHT22;14769;56.934;24.176;2022-12-10T04:37:30;-7.70;99.90
27270;DHT22;14769;56.934;24.176;2022-12-10T04:38:32;-7.80;99.90
27270;DHT22;14769;56.934;24.176;2022-12-10T04:39:34;-7.80;99.90
27270;DHT22;14769;56.934;24.176;2022-12-10T04:40:35;-7.80;99.90
27270;DHT22;14769;56.934;24.176;2022-12-10T04:41:40;-7.80;99.90
27270;DHT22;14769;56.934;24.176;2022-12-10T04:42:42;-7.80;99.90
27270;DHT22;14769;56.934;24.176;2022-12-10T04:43:44;-7.80;99.90
27270;DHT22;14769;56.934;24.176;2022-12-10T04:44:46;-7.80;99.90
27270;DHT22;14769;56.934;24.176;2022-12-10T04:45:47;-7.80;99.90
27270;DHT22;14769;56.934;24.176;2022-12-10T04:46:50;-7.80;99.90
27270;DHT22;14769;56.934;24.176;2022-12-10T04:47:51;-7.80;99.90
27270;DHT22;14769;56.934;24.176;2022-12-10T04:48:53;-7.80;99.90
27270;DHT22;14769;56.934;24.176;2022-12-10T04:49:55;-7.80;99.90
27270;DHT22;14769;56.934;24.176;2022-12-10T04:50:57;-7.80;99.90
27270;DHT22;14769;56.934;24.176;2022-12-10T04:51:59;-7.80;99.90
27270;DHT22;14769;56.934;24.176;2022-12-10T04:53:01;-7.80;99.90
27270;DHT22;14769;56.934;24.176;2022-12-10T04:54:03;-7.80;99.90
27270;DHT22;14769;56.934;24.176;2022-12-10T04:55:05;-7.80;99.90
27270;DHT22;14769;56.934;24.176;2022-12-10T04:56:07;-7.80;99.90
27270;DHT22;14769;56.934;24.176;2022-12-10T04:57:10;-7.80;99.90
27270;DHT22;14769;56.934;24.176;2022-12-10T04:58:13;-7.80;99.90
27270;DHT22;14769;56.934;24.176;2022-12-10T04:59:15;-7.80;99.90
27270;DHT22;14769;56.934;24.176;2022-12-10T05:00:17;-7.80;99.90
27270;DHT22;14769;56.934;24.176;2022-12-10T05:01:19;-7.80;99.90
27270;DHT22;14769;56.934;24.176;2022-12-10T05:02:23;-7.80;99.90
27270;DHT22;14769;56.934;24.176;2022-12-10T05:03:25;-7.80;99.90
27270;DHT22;14769;56.934;24.176;2022-12-10T05:04:27;-7.80;99.90
27270;DHT22;14769;56.934;24.176;2022-12-10T05:05:29;-7.80;99.90
27270;DHT22;14769;56.934;24.176;2022-12-10T05:06:31;-7.80;99.90
27270;DHT22;14769;56.934;24.176;2022-12-10T05:07:33;-7.80;99.90
27270;DHT22;14769;56.934;24.176;2022-12-10T05:08:36;-7.80;99.90
27270;DHT22;14769;56.934;24.176;2022-12-10T05:09:39;-7.80;99.90
27270;DHT22;14769;56.934;24.176;2022-12-10T05:10:40;-7.80;99.90
27270;DHT22;14769;56.934;24.176;2022-12-10T05:11:42;-7.70;99.90
27270;DHT22;14769;56.934;24.176;2022-12-10T05:12:45;-7.70;99.90
27270;DHT22;14769;56.934;24.176;2022-12-10T05:13:47;-7.70;99.90
27270;DHT22;14769;56.934;24.176;2022-12-10T05:14:49;-7.70;99.90
27270;DHT22;14769;56.934;24.176;2022-12-10T05:15:51;-7.70;99.90
27270;DHT22;14769;56.934;24.176;2022-12-10T05:16:53;-7.60;99.90
27270;DHT22;14769;56.934;24.176;2022-12-10T05:17:55;-7.60;99.90
27270;DHT22;14769;56.934;24.176;2022-12-10T05:18:57;-7.60;99.90
27270;DHT22;14769;56.934;24.176;2022-12-10T05:19:59;-7.60;99.90
27270;DHT22;14769;56.934;24.176;2022-12-10T05:21:03;-7.60;99.90
27270;DHT22;14769;56.934;24.176;2022-12-10T05:22:05;-7.60;99.90
27270;DHT22;14769;56.934;24.176;2022-12-10T05:23:26;-7.60;99.90
27270;DHT22;14769;56.934;24.176;2022-12-10T05:24:31;-7.60;99.90
27270;DHT22;14769;56.934;24.176;2022-12-10T05:25:32;-7.60;99.90
27270;DHT22;14769;56.934;24.176;2022-12-10T05:26:54;-7.60;99.90
27270;DHT22;14769;56.934;24.176;2022-12-10T05:27:56;-7.60;99.90
27270;DHT22;14769;56.934;24.176;2022-12-10T05:28:57;-7.60;99.90
27270;DHT22;14769;56.934;24.176;2022-12-10T05:29:59;-7.60;99.90
27270;DHT22;14769;56.934;24.176;2022-12-10T05:31:01;-7.60;99.90
27270;DHT22;14769;56.934;24.176;2022-12-10T05:32:04;-7.60;99.90
27270;DHT22;14769;56.934;24.176;2022-12-10T05:33:06;-7.60;99.90
27270;DHT22;14769;56.934;24.176;2022-12-10T05:34:10;-7.60;99.90
27270;DHT22;14769;56.934;24.176;2022-12-10T05:35:12;-7.60;99.90
27270;DHT22;14769;56.934;24.176;2022-12-10T05:36:17;-7.60;99.90
27270;DHT22;14769;56.934;24.176;2022-12-10T05:37:19;-7.60;99.90
27270;DHT22;14769;56.934;24.176;2022-12-10T05:38:21;-7.60;99.90
27270;DHT22;14769;56.934;24.176;2022-12-10T05:39:23;-7.60;99.90
27270;DHT22;14769;56.934;24.176;2022-12-10T05:40:25;-7.60;99.90
27270;DHT22;14769;56.934;24.176;2022-12-10T05:41:29;-7.60;99.90
27270;DHT22;14769;56.934;24.176;2022-12-10T05:42:31;-7.60;99.90
27270;DHT22;14769;56.934;24.176;2022-12-10T05:43:33;-7.60;99.90
27270;DHT22;14769;56.934;24.176;2022-12-10T05:44:36;-7.60;99.90
27270;DHT22;14769;56.934;24.176;2022-12-10T05:45:38;-7.60;99.90
27270;DHT22;14769;56.934;24.176;2022-12-10T05:46:40;-7.60;99.90
27270;DHT22;14769;56.934;24.176;2022-12-10T05:47:42;-7.60;99.90
27270;DHT22;14769;56.934;24.176;2022-12-10T05:48:44;-7.60;99.90
27270;DHT22;14769;56.934;24.176;2022-12-10T05:49:46;-7.70;99.90
27270;DHT22;14769;56.934;24.176;2022-12-10T05:50:53;-7.70;99.90
27270;DHT22;14769;56.934;24.176;2022-12-10T05:51:55;-7.70;99.90
27270;DHT22;14769;56.934;24.176;2022-12-10T05:52:58;-7.70;99.90
27270;DHT22;14769;56.934;24.176;2022-12-10T05:54:00;-7.60;99.90
27270;DHT22;14769;56.934;24.176;2022-12-10T05:55:05;-7.70;99.90
27270;DHT22;14769;56.934;24.176;2022-12-10T05:56:13;-7.70;99.90
27270;DHT22;14769;56.934;24.176;2022-12-10T05:57:15;-7.60;99.90
27270;DHT22;14769;56.934;24.176;2022-12-10T05:58:16;-7.60;99.90
27270;DHT22;14769;56.934;24.176;2022-12-10T05:59:18;-7.60;99.90
27270;DHT22;14769;56.934;24.176;2022-12-10T06:00:20;-7.60;99.90
27270;DHT22;14769;56.934;24.176;2022-12-10T06:01:27;-7.70;99.90
27270;DHT22;14769;56.934;24.176;2022-12-10T06:02:32;-7.70;99.90
27270;DHT22;14769;56.934;24.176;2022-12-10T06:03:34;-7.80;99.90
27270;DHT22;14769;56.934;24.176;2022-12-10T06:04:36;-7.90;99.90
27270;DHT22;14769;56.934;24.176;2022-12-10T06:05:40;-8.00;99.90
27270;DHT22;14769;56.934;24.176;2022-12-10T06:06:41;-8.00;99.90
27270;DHT22;14769;56.934;24.176;2022-12-10T06:07:43;-8.10;99.90
27270;DHT22;14769;56.934;24.176;2022-12-10T06:08:46;-8.10;99.90
27270;DHT22;14769;56.934;24.176;2022-12-10T06:09:47;-8.10;99.90
27270;DHT22;14769;56.934;24.176;2022-12-10T06:10:49;-8.20;99.90
27270;DHT22;14769;56.934;24.176;2022-12-10T06:11:51;-8.20;99.90
27270;DHT22;14769;56.934;24.176;2022-12-10T06:12:53;-8.30;99.90
27270;DHT22;14769;56.934;24.176;2022-12-10T06:13:56;-8.30;99.90
27270;DHT22;14769;56.934;24.176;2022-12-10T06:14:59;-8.30;99.90
27270;DHT22;14769;56.934;24.176;2022-12-10T06:16:09;-8.40;99.90
27270;DHT22;14769;56.934;24.176;2022-12-10T06:17:11;-8.40;99.90
27270;DHT22;14769;56.934;24.176;2022-12-10T06:18:13;-8.40;99.90
27270;DHT22;14769;56.934;24.176;2022-12-10T06:19:15;-8.40;99.90
27270;DHT22;14769;56.934;24.176;2022-12-10T06:20:17;-8.50;99.90
27270;DHT22;14769;56.934;24.176;2022-12-10T06:21:19;-8.50;99.90
27270;DHT22;14769;56.934;24.176;2022-12-10T06:22:22;-8.50;99.90
27270;DHT22;14769;56.934;24.176;2022-12-10T06:23:23;-8.60;99.90
27270;DHT22;14769;56.934;24.176;2022-12-10T06:24:25;-8.60;99.90
27270;DHT22;14769;56.934;24.176;2022-12-10T06:25:27;-8.60;99.90
27270;DHT22;14769;56.934;24.176;2022-12-10T06:26:29;-8.60;99.90
27270;DHT22;14769;56.934;24.176;2022-12-10T06:27:31;-8.60;99.90
27270;DHT22;14769;56.934;24.176;2022-12-10T06:28:33;-8.70;99.90
27270;DHT22;14769;56.934;24.176;2022-12-10T06:29:35;-8.70;99.90
27270;DHT22;14769;56.934;24.176;2022-12-10T06:30:37;-8.70;99.90
27270;DHT22;14769;56.934;24.176;2022-12-10T06:31:39;-8.80;99.90
27270;DHT22;14769;56.934;24.176;2022-12-10T06:32:41;-8.80;99.90
27270;DHT22;14769;56.934;24.176;2022-12-10T06:33:44;-8.80;99.90
27270;DHT22;14769;56.934;24.176;2022-12-10T06:34:46;-8.80;99.90
27270;DHT22;14769;56.934;24.176;2022-12-10T06:35:48;-8.80;99.90
27270;DHT22;14769;56.934;24.176;2022-12-10T06:36:50;-8.90;99.90
27270;DHT22;14769;56.934;24.176;2022-12-10T06:37:52;-8.90;99.90
27270;DHT22;14769;56.934;24.176;2022-12-10T06:38:54;-8.90;99.90
27270;DHT22;14769;56.934;24.176;2022-12-10T06:39:55;-8.90;99.90
27270;DHT22;14769;56.934;24.176;2022-12-10T06:40:57;-8.90;99.90
27270;DHT22;14769;56.934;24.176;2022-12-10T06:41:59;-8.90;99.90
27270;DHT22;14769;56.934;24.176;2022-12-10T06:43:01;-8.90;99.90
27270;DHT22;14769;56.934;24.176;2022-12-10T06:44:07;-9.00;99.90
27270;DHT22;14769;56.934;24.176;2022-12-10T06:45:09;-9.00;99.90
27270;DHT22;14769;56.934;24.176;2022-12-10T06:46:14;-9.10;99.90
27270;DHT22;14769;56.934;24.176;2022-12-10T06:47:17;-9.10;99.90
27270;DHT22;14769;56.934;24.176;2022-12-10T06:48:19;-9.10;99.90
27270;DHT22;14769;56.934;24.176;2022-12-10T06:49:21;-9.10;99.90
27270;DHT22;14769;56.934;24.176;2022-12-10T06:50:23;-9.10;99.90